createdAt,value
2018-12-08T00:02:09.358Z,5.4
2018-12-08T00:12:08.564Z,5.4
2018-12-08T00:22:07.764Z,5.4
2018-12-08T00:32:06.977Z,5.6
2018-12-08T00:42:06.174Z,5.6
2018-12-08T00:52:05.372Z,5.6
2018-12-08T01:02:04.579Z,5.7
2018-12-08T01:12:03.776Z,5.6
2018-12-08T01:22:02.990Z,5.5
2018-12-08T01:32:02.193Z,5.4
2018-12-08T01:42:01.397Z,5.4
2018-12-08T01:52:00.601Z,5.3
2018-12-08T02:01:59.809Z,5.3
2018-12-08T02:11:59.008Z,5.3
2018-12-08T02:21:58.210Z,5.4
2018-12-08T02:31:57.417Z,5.4
2018-12-08T02:41:56.622Z,5.3
2018-12-08T02:51:55.824Z,5.2
2018-12-08T03:01:55.025Z,5.2
2018-12-08T03:11:54.233Z,5.2
2018-12-08T03:21:53.433Z,5.2
2018-12-08T03:31:52.635Z,5.2
2018-12-08T03:41:51.836Z,5.1
2018-12-08T03:51:51.045Z,5.1
2018-12-08T04:01:50.253Z,4.9
2018-12-08T04:11:49.439Z,4.9
2018-12-08T04:21:48.650Z,4.8
2018-12-08T04:31:47.849Z,4.8
2018-12-08T04:41:47.053Z,4.8
2018-12-08T04:51:46.253Z,4.8
2018-12-08T05:01:45.453Z,4.9
2018-12-08T05:11:44.651Z,5.1
2018-12-08T05:21:43.865Z,5.1
2018-12-08T05:31:43.058Z,5.1
2018-12-08T05:41:42.266Z,5
2018-12-08T05:51:41.465Z,5
2018-12-08T06:01:40.668Z,5
2018-12-08T06:11:39.869Z,5.1
2018-12-08T06:21:39.069Z,5.4
2018-12-08T06:31:38.269Z,6.1
2018-12-08T06:41:37.474Z,8
2018-12-08T06:51:36.678Z,9.4
2018-12-08T07:01:35.887Z,5.6
2018-12-08T07:11:35.081Z,4.1
2018-12-08T07:21:34.277Z,5.5
2018-12-08T07:31:33.483Z,8.3
2018-12-08T07:41:32.697Z,12.9
2018-12-08T07:51:31.895Z,13.3
2018-12-08T08:01:31.102Z,11.2
2018-12-08T08:11:30.310Z,9
2018-12-08T08:21:29.512Z,6.8
2018-12-08T08:31:28.712Z,6.4
2018-12-08T08:41:27.921Z,5.9
2018-12-08T08:51:27.121Z,4.9
2018-12-08T09:01:26.335Z,5.6
2018-12-08T09:11:25.542Z,6.3
2018-12-08T09:21:24.745Z,7.1
2018-12-08T09:31:23.951Z,7.1
2018-12-08T09:41:23.157Z,6.7
2018-12-08T09:51:22.369Z,6.3
2018-12-08T10:01:21.578Z,5.9
2018-12-08T10:11:20.789Z,5.1
2018-12-08T10:21:19.999Z,4.6
2018-12-08T10:31:19.201Z,4.4
2018-12-08T10:41:18.410Z,4.4
2018-12-08T10:51:17.616Z,4.3
2018-12-08T11:01:16.826Z,4.3
2018-12-08T11:11:16.032Z,4.1
2018-12-08T11:21:15.238Z,4.3
2018-12-08T11:31:14.442Z,4.5
2018-12-08T11:41:13.640Z,4.6
2018-12-08T11:51:12.843Z,4.6
2018-12-08T12:01:12.053Z,4.8
2018-12-08T12:11:11.258Z,5.1
2018-12-08T12:21:10.451Z,5
2018-12-08T12:31:09.658Z,5.1
2018-12-08T12:41:08.861Z,5.2
2018-12-08T12:51:08.061Z,5.3
2018-12-08T13:01:07.272Z,5.5
2018-12-08T13:11:06.471Z,5.8
2018-12-08T13:21:05.671Z,5.8
2018-12-08T13:31:04.874Z,5.6
2018-12-08T13:41:04.085Z,5.5
2018-12-08T13:51:03.281Z,5.3
2018-12-08T14:01:02.486Z,5.2
2018-12-08T14:11:01.685Z,5.3
2018-12-08T14:21:00.882Z,5.1
2018-12-08T14:31:00.086Z,5.4
2018-12-08T14:40:59.295Z,5.3
2018-12-08T14:50:58.493Z,5.2
2018-12-08T15:00:57.697Z,4.9
2018-12-08T15:10:56.901Z,6
2018-12-08T15:20:56.107Z,6.4
2018-12-08T15:30:55.315Z,6.8
2018-12-08T15:40:54.520Z,7.1
2018-12-08T15:50:53.732Z,7.3
2018-12-08T16:00:52.941Z,7.4
2018-12-08T16:10:52.148Z,7.3
2018-12-08T16:20:51.363Z,7.1
2018-12-08T16:30:50.558Z,7.1
2018-12-08T16:40:49.768Z,7.3
2018-12-08T16:50:48.968Z,7.6
2018-12-08T17:00:48.179Z,7.7
2018-12-08T17:10:47.381Z,7.8
2018-12-08T17:20:46.596Z,7.9
2018-12-08T17:30:45.828Z,8.1
2018-12-08T17:40:45.013Z,8.2
2018-12-08T17:50:44.235Z,8.3
2018-12-08T18:00:43.443Z,8.4
2018-12-08T18:10:42.661Z,8.3
2018-12-08T18:20:41.881Z,8.3
2018-12-08T18:30:41.104Z,8.1
2018-12-08T18:40:40.302Z,8.1
2018-12-08T18:50:39.518Z,8.2
2018-12-08T19:00:38.808Z,8.1
2018-12-08T19:10:37.944Z,8.2
2018-12-08T19:20:37.158Z,8.2
2018-12-08T19:30:36.364Z,8.3
2018-12-08T19:40:35.571Z,8.2
2018-12-08T19:50:34.787Z,8
2018-12-08T20:00:33.990Z,7.9
2018-12-08T20:10:33.206Z,7.8
2018-12-08T20:20:32.421Z,7.9
2018-12-08T20:30:31.638Z,8.1
2018-12-08T20:40:30.842Z,8.2
2018-12-08T20:50:30.060Z,8.3
2018-12-08T21:00:29.266Z,8.4
2018-12-08T21:10:28.485Z,8.4
2018-12-08T21:20:27.701Z,8.5
2018-12-08T21:30:26.915Z,8.6
2018-12-08T21:40:26.123Z,8.7
2018-12-08T21:50:25.328Z,8.7
2018-12-08T22:00:24.534Z,8.8
2018-12-08T22:10:23.748Z,8.8
2018-12-08T22:20:23.051Z,8.8
2018-12-08T22:30:22.171Z,8.8
2018-12-08T22:40:21.377Z,8.7
2018-12-08T22:50:20.583Z,8.6
2018-12-08T23:00:19.786Z,8.3
2018-12-08T23:10:18.992Z,8.1
2018-12-08T23:20:18.198Z,7.9
2018-12-08T23:30:17.404Z,8.1
2018-12-08T23:40:16.615Z,8.3
2018-12-08T23:50:15.817Z,8.5
